CheckWX is a tool to help pilots better visualize weather data.  It is not intended as a substitute for an official pre-flight weather briefing.

01:26:11 UTC

EPKT METAR
Katowice International Airport
Katowice, Poland
Current

26 mins ago

EPKT 200100Z 18002KT CAVOK 16/14 Q1016
Observed
Jul-20 @ 01:00 UTC
Wind
  • 180° at 2 KTS
Visibility
10,000+ meters
Flight Rules
VFR
Cloud Levels
  • Clear skies
Temperature
16°C / 61°F
Dewpoint
14°C / 57°F
Humidity
88%
Altimeter
30" Hg
Pressure
1015.92 hPa
Previous

56 mins ago

EPKT 200030Z 16004KT CAVOK 16/14 Q1016
Observed
Jul-20 @ 00:30 UTC
Wind
  • 160° at 4 KTS
Visibility
10,000+ meters
Flight Rules
VFR
Cloud Levels
  • Clear skies
Temperature
16°C / 61°F
Dewpoint
14°C / 57°F
Humidity
88%
Altimeter
30" Hg
Pressure
1015.92 hPa
Previous

1 hour ago

EPKT 200000Z 17003KT CAVOK 17/14 Q1016
Observed
Jul-20 @ 00:00 UTC
Wind
  • 170° at 3 KTS
Visibility
10,000+ meters
Flight Rules
VFR
Cloud Levels
  • Clear skies
Temperature
17°C / 63°F
Dewpoint
14°C / 57°F
Humidity
83%
Altimeter
30" Hg
Pressure
1015.92 hPa